sensor_id;sensor_type;location;lat;lon;timestamp;pressure;altitude;pressure_sealevel;temperature
23992;BMP280;12205;50.600;4.608;2022-11-24T00:00:51;98719.75;;;9.11
23992;BMP280;12205;50.600;4.608;2022-11-24T00:03:19;98732.69;;;9.16
23992;BMP280;12205;50.600;4.608;2022-11-24T00:05:46;98727.38;;;9.16
23992;BMP280;12205;50.600;4.608;2022-11-24T00:08:14;98732.69;;;9.16
23992;BMP280;12205;50.600;4.608;2022-11-24T00:10:42;98736.50;;;9.26
23992;BMP280;12205;50.600;4.608;2022-11-24T00:13:09;98741.84;;;9.22
23992;BMP280;12205;50.600;4.608;2022-11-24T00:15:36;98744.84;;;9.24
23992;BMP280;12205;50.600;4.608;2022-11-24T00:18:03;98743.34;;;9.20
23992;BMP280;12205;50.600;4.608;2022-11-24T00:20:30;98742.59;;;9.19
23992;BMP280;12205;50.600;4.608;2022-11-24T00:22:57;98739.19;;;9.22
23992;BMP280;12205;50.600;4.608;2022-11-24T00:25:26;98742.97;;;9.28
23992;BMP280;12205;50.600;4.608;2022-11-24T00:27:53;98744.13;;;9.34
23992;BMP280;12205;50.600;4.608;2022-11-24T00:30:20;98756.31;;;9.35
23992;BMP280;12205;50.600;4.608;2022-11-24T00:32:47;98763.91;;;9.33
23992;BMP280;12205;50.600;4.608;2022-11-24T00:35:14;98771.91;;;9.33
23992;BMP280;12205;50.600;4.608;2022-11-24T00:37:41;98766.97;;;9.35
23992;BMP280;12205;50.600;4.608;2022-11-24T00:40:09;98775.72;;;9.32
23992;BMP280;12205;50.600;4.608;2022-11-24T00:42:38;98779.53;;;9.35
23992;BMP280;12205;50.600;4.608;2022-11-24T00:45:06;98771.53;;;9.35
23992;BMP280;12205;50.600;4.608;2022-11-24T00:47:33;98773.06;;;9.32
23992;BMP280;12205;50.600;4.608;2022-11-24T00:50:03;98766.97;;;9.21
23992;BMP280;12205;50.600;4.608;2022-11-24T00:52:30;98762.78;;;9.24
23992;BMP280;12205;50.600;4.608;2022-11-24T00:54:57;98765.47;;;9.20
23992;BMP280;12205;50.600;4.608;2022-11-24T00:57:24;98761.66;;;9.14
23992;BMP280;12205;50.600;4.608;2022-11-24T00:59:53;98762.41;;;9.22
23992;BMP280;12205;50.600;4.608;2022-11-24T01:02:20;98762.38;;;9.25
23992;BMP280;12205;50.600;4.608;2022-11-24T01:04:47;98766.97;;;9.14
23992;BMP280;12205;50.600;4.608;2022-11-24T01:07:14;98754.41;;;9.14
23992;BMP280;12205;50.600;4.608;2022-11-24T01:09:41;98754.03;;;9.20
23992;BMP280;12205;50.600;4.608;2022-11-24T01:12:10;98757.09;;;9.22
23992;BMP280;12205;50.600;4.608;2022-11-24T01:14:37;98756.28;;;9.28
23992;BMP280;12205;50.600;4.608;2022-11-24T01:17:06;98771.56;;;9.31
23992;BMP280;12205;50.600;4.608;2022-11-24T01:19:33;98774.97;;;9.35
23992;BMP280;12205;50.600;4.608;2022-11-24T01:22:00;98773.84;;;9.33
23992;BMP280;12205;50.600;4.608;2022-11-24T01:24:27;98768.47;;;9.36
23992;BMP280;12205;50.600;4.608;2022-11-24T01:26:54;98767.72;;;9.43
23992;BMP280;12205;50.600;4.608;2022-11-24T01:29:22;98771.53;;;9.39
23992;BMP280;12205;50.600;4.608;2022-11-24T01:31:50;98785.28;;;9.48
23992;BMP280;12205;50.600;4.608;2022-11-24T01:34:19;98783.00;;;9.43
23992;BMP280;12205;50.600;4.608;2022-11-24T01:36:46;98771.56;;;9.42
23992;BMP280;12205;50.600;4.608;2022-11-24T01:39:13;98779.91;;;9.41
23992;BMP280;12205;50.600;4.608;2022-11-24T01:41:40;98795.16;;;9.40
23992;BMP280;12205;50.600;4.608;2022-11-24T01:44:26;98788.31;;;9.35
23992;BMP280;12205;50.600;4.608;2022-11-24T01:46:57;98793.25;;;9.33
23992;BMP280;12205;50.600;4.608;2022-11-24T01:49:36;98787.53;;;9.28
23992;BMP280;12205;50.600;4.608;2022-11-24T01:52:10;98790.22;;;9.31
23992;BMP280;12205;50.600;4.608;2022-11-24T01:54:44;98789.06;;;9.32
23992;BMP280;12205;50.600;4.608;2022-11-24T01:57:16;98785.25;;;9.26
23992;BMP280;12205;50.600;4.608;2022-11-24T01:59:49;98798.97;;;9.35
23992;BMP280;12205;50.600;4.608;2022-11-24T02:02:23;98814.22;;;9.39
23992;BMP280;12205;50.600;4.608;2022-11-24T02:04:54;98808.13;;;9.42
23992;BMP280;12205;50.600;4.608;2022-11-24T02:07:22;98820.31;;;9.43
23992;BMP280;12205;50.600;4.608;2022-11-24T02:09:54;98825.28;;;9.48
23992;BMP280;12205;50.600;4.608;2022-11-24T02:12:23;98837.44;;;9.52
23992;BMP280;12205;50.600;4.608;2022-11-24T02:14:52;98820.72;;;9.52
23992;BMP280;12205;50.600;4.608;2022-11-24T02:17:20;98835.19;;;9.51
23992;BMP280;12205;50.600;4.608;2022-11-24T02:19:56;98834.78;;;9.52
23992;BMP280;12205;50.600;4.608;2022-11-24T02:22:32;98848.50;;;9.47
23992;BMP280;12205;50.600;4.608;2022-11-24T02:25:08;98830.19;;;9.53
23992;BMP280;12205;50.600;4.608;2022-11-24T02:27:43;98847.75;;;9.50
23992;BMP280;12205;50.600;4.608;2022-11-24T02:30:11;98837.84;;;9.51
23992;BMP280;12205;50.600;4.608;2022-11-24T02:32:40;98840.88;;;9.57
23992;BMP280;12205;50.600;4.608;2022-11-24T02:35:10;98834.41;;;9.58
23992;BMP280;12205;50.600;4.608;2022-11-24T02:37:37;98844.31;;;9.57
23992;BMP280;12205;50.600;4.608;2022-11-24T02:40:06;98839.72;;;9.54
23992;BMP280;12205;50.600;4.608;2022-11-24T02:42:37;98853.06;;;9.54
23992;BMP280;12205;50.600;4.608;2022-11-24T02:45:09;98834.78;;;9.49
23992;BMP280;12205;50.600;4.608;2022-11-24T02:47:37;98832.88;;;9.53
23992;BMP280;12205;50.600;4.608;2022-11-24T02:50:05;98840.88;;;9.57
23992;BMP280;12205;50.600;4.608;2022-11-24T02:52:32;98843.16;;;9.65
23992;BMP280;12205;50.600;4.608;2022-11-24T02:54:59;98848.50;;;9.65
23992;BMP280;12205;50.600;4.608;2022-11-24T02:57:26;98846.22;;;9.67
23992;BMP280;12205;50.600;4.608;2022-11-24T02:59:53;98868.31;;;9.71
23992;BMP280;12205;50.600;4.608;2022-11-24T03:02:22;98871.38;;;9.73
23992;BMP280;12205;50.600;4.608;2022-11-24T03:04:49;98879.78;;;9.68
23992;BMP280;12205;50.600;4.608;2022-11-24T03:07:17;98879.78;;;9.68
23992;BMP280;12205;50.600;4.608;2022-11-24T03:09:44;98888.88;;;9.71
23992;BMP280;12205;50.600;4.608;2022-11-24T03:12:11;98902.63;;;9.66
23992;BMP280;12205;50.600;4.608;2022-11-24T03:14:38;98911.78;;;9.68
23992;BMP280;12205;50.600;4.608;2022-11-24T03:17:05;98908.75;;;9.70
23992;BMP280;12205;50.600;4.608;2022-11-24T03:19:34;98906.47;;;9.68
23992;BMP280;12205;50.600;4.608;2022-11-24T03:22:01;98915.59;;;9.67
23992;BMP280;12205;50.600;4.608;2022-11-24T03:24:29;98935.41;;;9.66
23992;BMP280;12205;50.600;4.608;2022-11-24T03:26:56;98924.34;;;9.64
23992;BMP280;12205;50.600;4.608;2022-11-24T03:29:23;98892.72;;;9.66
23992;BMP280;12205;50.600;4.608;2022-11-24T03:31:50;98903.38;;;9.59
23992;BMP280;12205;50.600;4.608;2022-11-24T03:34:17;98880.50;;;9.44
23992;BMP280;12205;50.600;4.608;2022-11-24T03:36:46;98839.34;;;9.38
23992;BMP280;12205;50.600;4.608;2022-11-24T03:39:13;98822.59;;;9.30
23992;BMP280;12205;50.600;4.608;2022-11-24T03:41:40;98776.09;;;9.16
23992;BMP280;12205;50.600;4.608;2022-11-24T03:44:07;98745.63;;;9.07
23992;BMP280;12205;50.600;4.608;2022-11-24T03:46:34;98789.41;;;8.98
23992;BMP280;12205;50.600;4.608;2022-11-24T03:49:01;98860.56;;;8.91
23992;BMP280;12205;50.600;4.608;2022-11-24T03:51:28;98864.28;;;8.72
23992;BMP280;12205;50.600;4.608;2022-11-24T03:53:57;98852.03;;;8.56
23992;BMP280;12205;50.600;4.608;2022-11-24T03:56:24;98861.09;;;8.44
23992;BMP280;12205;50.600;4.608;2022-11-24T03:58:51;98874.41;;;8.41
23992;BMP280;12205;50.600;4.608;2022-11-24T04:01:18;98880.06;;;8.36
23992;BMP280;12205;50.600;4.608;2022-11-24T04:03:45;98881.50;;;8.26
23992;BMP280;12205;50.600;4.608;2022-11-24T04:06:13;98880.03;;;8.29
23992;BMP280;12205;50.600;4.608;2022-11-24T04:08:40;98918.00;;;8.18
23992;BMP280;12205;50.600;4.608;2022-11-24T04:11:08;98924.81;;;8.19
23992;BMP280;12205;50.600;4.608;2022-11-24T04:13:55;98918.34;;;8.17
23992;BMP280;12205;50.600;4.608;2022-11-24T04:16:22;98925.25;;;8.21
23992;BMP280;12205;50.600;4.608;2022-11-24T04:18:51;98929.69;;;8.14
23992;BMP280;12205;50.600;4.608;2022-11-24T04:21:19;98923.25;;;8.11
23992;BMP280;12205;50.600;4.608;2022-11-24T04:23:46;98931.59;;;8.13
23992;BMP280;12205;50.600;4.608;2022-11-24T04:26:15;98882.56;;;8.11
23992;BMP280;12205;50.600;4.608;2022-11-24T04:28:42;98853.22;;;8.00
23992;BMP280;12205;50.600;4.608;2022-11-24T04:31:09;98837.25;;;8.00
23992;BMP280;12205;50.600;4.608;2022-11-24T04:33:36;98821.28;;;8.00
23992;BMP280;12205;50.600;4.608;2022-11-24T04:36:04;98800.34;;;7.95
23992;BMP280;12205;50.600;4.608;2022-11-24T04:38:31;98790.84;;;7.94
23992;BMP280;12205;50.600;4.608;2022-11-24T04:41:00;98784.00;;;7.93
23992;BMP280;12205;50.600;4.608;2022-11-24T04:43:29;98775.63;;;7.90
23992;BMP280;12205;50.600;4.608;2022-11-24T04:45:59;98777.09;;;7.84
23992;BMP280;12205;50.600;4.608;2022-11-24T04:48:26;98771.75;;;7.81
23992;BMP280;12205;50.600;4.608;2022-11-24T04:50:54;98773.31;;;7.85
23992;BMP280;12205;50.600;4.608;2022-11-24T04:53:21;98774.09;;;7.93
23992;BMP280;12205;50.600;4.608;2022-11-24T04:55:48;98785.53;;;7.94
23992;BMP280;12205;50.600;4.608;2022-11-24T04:58:16;98786.28;;;7.94
23992;BMP280;12205;50.600;4.608;2022-11-24T05:00:44;98797.69;;;7.95
23992;BMP280;12205;50.600;4.608;2022-11-24T05:03:11;98812.88;;;7.90
23992;BMP280;12205;50.600;4.608;2022-11-24T05:05:38;98811.31;;;7.89
23992;BMP280;12205;50.600;4.608;2022-11-24T05:08:05;98827.25;;;7.82
23992;BMP280;12205;50.600;4.608;2022-11-24T05:10:33;98832.56;;;7.82
23992;BMP280;12205;50.600;4.608;2022-11-24T05:13:03;98837.81;;;7.75
23992;BMP280;12205;50.600;4.608;2022-11-24T05:15:31;98821.88;;;7.75
23992;BMP280;12205;50.600;4.608;2022-11-24T05:18:03;98823.41;;;7.76
23992;BMP280;12205;50.600;4.608;2022-11-24T05:20:30;98818.09;;;7.80
23992;BMP280;12205;50.600;4.608;2022-11-24T05:23:01;98798.75;;;7.83
23992;BMP280;12205;50.600;4.608;2022-11-24T05:25:28;98793.06;;;7.84
23992;BMP280;12205;50.600;4.608;2022-11-24T05:27:59;98804.53;;;7.96
23992;BMP280;12205;50.600;4.608;2022-11-24T05:30:27;98808.38;;;8.02
23992;BMP280;12205;50.600;4.608;2022-11-24T05:32:54;98807.63;;;8.05
23992;BMP280;12205;50.600;4.608;2022-11-24T05:35:23;98801.56;;;8.08
23992;BMP280;12205;50.600;4.608;2022-11-24T05:37:50;98806.16;;;8.11
23992;BMP280;12205;50.600;4.608;2022-11-24T05:40:17;98799.31;;;8.14
23992;BMP280;12205;50.600;4.608;2022-11-24T05:42:45;98822.50;;;8.13
23992;BMP280;12205;50.600;4.608;2022-11-24T05:45:14;98816.81;;;8.11
23992;BMP280;12205;50.600;4.608;2022-11-24T05:47:42;98830.84;;;8.08
23992;BMP280;12205;50.600;4.608;2022-11-24T05:50:12;98854.06;;;8.11
23992;BMP280;12205;50.600;4.608;2022-11-24T05:52:41;98852.53;;;8.10
23992;BMP280;12205;50.600;4.608;2022-11-24T05:55:10;98839.16;;;8.03
23992;BMP280;12205;50.600;4.608;2022-11-24T05:57:38;98855.97;;;8.11
23992;BMP280;12205;50.600;4.608;2022-11-24T06:00:08;98869.22;;;8.07
23992;BMP280;12205;50.600;4.608;2022-11-24T06:02:38;98874.97;;;8.13
23992;BMP280;12205;50.600;4.608;2022-11-24T06:05:06;98898.13;;;8.12
23992;BMP280;12205;50.600;4.608;2022-11-24T06:07:34;98901.59;;;8.13
23992;BMP280;12205;50.600;4.608;2022-11-24T06:10:03;98917.19;;;8.14
23992;BMP280;12205;50.600;4.608;2022-11-24T06:12:30;98927.81;;;8.14
23992;BMP280;12205;50.600;4.608;2022-11-24T06:14:57;98934.28;;;8.13
23992;BMP280;12205;50.600;4.608;2022-11-24T06:17:26;98950.59;;;8.08
23992;BMP280;12205;50.600;4.608;2022-11-24T06:19:53;98952.84;;;8.06
23992;BMP280;12205;50.600;4.608;2022-11-24T06:22:20;98965.75;;;8.04
23992;BMP280;12205;50.600;4.608;2022-11-24T06:24:47;98964.97;;;8.03
23992;BMP280;12205;50.600;4.608;2022-11-24T06:27:16;98968.78;;;8.02
23992;BMP280;12205;50.600;4.608;2022-11-24T06:29:44;98974.06;;;7.99
23992;BMP280;12205;50.600;4.608;2022-11-24T06:32:11;98985.44;;;7.96
23992;BMP280;12205;50.600;4.608;2022-11-24T06:34:38;98974.75;;;7.92
23992;BMP280;12205;50.600;4.608;2022-11-24T06:37:06;98990.75;;;7.96
23992;BMP280;12205;50.600;4.608;2022-11-24T06:39:33;98994.13;;;7.93
23992;BMP280;12205;50.600;4.608;2022-11-24T06:42:00;99005.13;;;7.87
23992;BMP280;12205;50.600;4.608;2022-11-24T06:44:29;99007.38;;;7.85
23992;BMP280;12205;50.600;4.608;2022-11-24T06:46:56;99024.53;;;7.88
23992;BMP280;12205;50.600;4.608;2022-11-24T06:49:23;99026.41;;;7.87
23992;BMP280;12205;50.600;4.608;2022-11-24T06:51:53;99033.63;;;7.87
23992;BMP280;12205;50.600;4.608;2022-11-24T06:54:20;99046.88;;;7.83
23992;BMP280;12205;50.600;4.608;2022-11-24T06:56:47;99057.50;;;7.83
23992;BMP280;12205;50.600;4.608;2022-11-24T06:59:17;99054.44;;;7.81
23992;BMP280;12205;50.600;4.608;2022-11-24T07:01:46;99055.16;;;7.78
23992;BMP280;12205;50.600;4.608;2022-11-24T07:04:14;99057.09;;;7.81
23992;BMP280;12205;50.600;4.608;2022-11-24T07:06:42;99066.56;;;7.79
23992;BMP280;12205;50.600;4.608;2022-11-24T07:09:11;99056.31;;;7.77
23992;BMP280;12205;50.600;4.608;2022-11-24T07:11:39;99065.78;;;7.75
23992;BMP280;12205;50.600;4.608;2022-11-24T07:14:06;99071.09;;;7.75
23992;BMP280;12205;50.600;4.608;2022-11-24T07:16:34;99069.63;;;7.77
23992;BMP280;12205;50.600;4.608;2022-11-24T07:19:03;99082.84;;;7.74
23992;BMP280;12205;50.600;4.608;2022-11-24T07:21:30;99087.00;;;7.71
23992;BMP280;12205;50.600;4.608;2022-11-24T07:23:58;99092.31;;;7.71
23992;BMP280;12205;50.600;4.608;2022-11-24T07:26:25;99105.31;;;7.76
23992;BMP280;12205;50.600;4.608;2022-11-24T07:28:53;99119.00;;;7.78
23992;BMP280;12205;50.600;4.608;2022-11-24T07:31:21;99126.53;;;7.72
23992;BMP280;12205;50.600;4.608;2022-11-24T07:33:52;99123.16;;;7.76
23992;BMP280;12205;50.600;4.608;2022-11-24T07:36:21;99130.38;;;7.75
23992;BMP280;12205;50.600;4.608;2022-11-24T07:38:49;99129.19;;;7.72
23992;BMP280;12205;50.600;4.608;2022-11-24T07:41:18;99131.81;;;7.69
23992;BMP280;12205;50.600;4.608;2022-11-24T07:43:46;99136.00;;;7.70
23992;BMP280;12205;50.600;4.608;2022-11-24T07:46:16;99134.16;;;7.74
23992;BMP280;12205;50.600;4.608;2022-11-24T07:48:43;99130.38;;;7.75
23992;BMP280;12205;50.600;4.608;2022-11-24T07:51:11;99139.06;;;7.72
23992;BMP280;12205;50.600;4.608;2022-11-24T07:53:39;99137.94;;;7.73
23992;BMP280;12205;50.600;4.608;2022-11-24T07:56:08;99131.84;;;7.72
23992;BMP280;12205;50.600;4.608;2022-11-24T07:58:36;99141.03;;;7.79
23992;BMP280;12205;50.600;4.608;2022-11-24T08:01:12;99142.19;;;7.78
23992;BMP280;12205;50.600;4.608;2022-11-24T08:03:40;99139.13;;;7.79
23992;BMP280;12205;50.600;4.608;2022-11-24T08:06:08;99151.78;;;7.86
23992;BMP280;12205;50.600;4.608;2022-11-24T08:08:35;99154.09;;;7.87
23992;BMP280;12205;50.600;4.608;2022-11-24T08:11:10;99157.13;;;7.89
23992;BMP280;12205;50.600;4.608;2022-11-24T08:13:39;99176.59;;;7.94
23992;BMP280;12205;50.600;4.608;2022-11-24T08:16:12;99160.13;;;7.84
23992;BMP280;12205;50.600;4.608;2022-11-24T08:18:40;99170.53;;;7.97
23992;BMP280;12205;50.600;4.608;2022-11-24T08:21:12;99175.16;;;8.00
23992;BMP280;12205;50.600;4.608;2022-11-24T08:23:40;99182.44;;;8.06
23992;BMP280;12205;50.600;4.608;2022-11-24T08:26:12;99192.34;;;8.06
23992;BMP280;12205;50.600;4.608;2022-11-24T08:28:42;99192.72;;;8.08
23992;BMP280;12205;50.600;4.608;2022-11-24T08:31:13;99198.47;;;8.10
23992;BMP280;12205;50.600;4.608;2022-11-24T08:33:41;99199.28;;;8.14
23992;BMP280;12205;50.600;4.608;2022-11-24T08:36:10;99205.41;;;8.18
23992;BMP280;12205;50.600;4.608;2022-11-24T08:38:38;99215.34;;;8.21
23992;BMP280;12205;50.600;4.608;2022-11-24T08:41:09;99225.66;;;8.26
23992;BMP280;12205;50.600;4.608;2022-11-24T08:43:36;99226.81;;;8.29
23992;BMP280;12205;50.600;4.608;2022-11-24T08:46:06;99234.13;;;8.36
23992;BMP280;12205;50.600;4.608;2022-11-24T08:48:34;99235.66;;;8.37
23992;BMP280;12205;50.600;4.608;2022-11-24T08:51:07;99243.72;;;8.44
23992;BMP280;12205;50.600;4.608;2022-11-24T08:53:35;99237.72;;;8.47
23992;BMP280;12205;50.600;4.608;2022-11-24T08:56:03;99247.22;;;8.48
23992;BMP280;12205;50.600;4.608;2022-11-24T08:58:34;99242.31;;;8.50
23992;BMP280;12205;50.600;4.608;2022-11-24T09:01:05;99272.78;;;8.56
23992;BMP280;12205;50.600;4.608;2022-11-24T09:03:33;99271.38;;;8.62
23992;BMP280;12205;50.600;4.608;2022-11-24T09:06:01;99273.66;;;8.64
23992;BMP280;12205;50.600;4.608;2022-11-24T09:08:29;99284.00;;;8.69
23992;BMP280;12205;50.600;4.608;2022-11-24T09:10:59;99295.00;;;8.68
23992;BMP280;12205;50.600;4.608;2022-11-24T09:13:27;99304.97;;;8.74
23992;BMP280;12205;50.600;4.608;2022-11-24T09:15:55;99312.25;;;8.77
23992;BMP280;12205;50.600;4.608;2022-11-24T09:18:23;99308.06;;;8.80
23992;BMP280;12205;50.600;4.608;2022-11-24T09:20:50;99305.09;;;8.85
23992;BMP280;12205;50.600;4.608;2022-11-24T09:23:17;99308.16;;;8.87
23992;BMP280;12205;50.600;4.608;2022-11-24T09:25:44;99314.31;;;8.95
23992;BMP280;12205;50.600;4.608;2022-11-24T09:28:11;99321.94;;;8.96
23992;BMP280;12205;50.600;4.608;2022-11-24T09:30:38;99320.34;;;8.88
23992;BMP280;12205;50.600;4.608;2022-11-24T09:33:07;99334.66;;;9.07
23992;BMP280;12205;50.600;4.608;2022-11-24T09:35:36;99340.47;;;9.16
23992;BMP280;12205;50.600;4.608;2022-11-24T09:38:03;99343.56;;;9.22
23992;BMP280;12205;50.600;4.608;2022-11-24T09:40:31;99361.88;;;9.23
23992;BMP280;12205;50.600;4.608;2022-11-24T09:47:22;99373.09;;;9.40
23992;BMP280;12205;50.600;4.608;2022-11-24T09:49:59;99394.06;;;9.41
23992;BMP280;12205;50.600;4.608;2022-11-24T09:52:39;99399.38;;;9.45
23992;BMP280;12205;50.600;4.608;2022-11-24T09:55:25;99401.00;;;9.53
23992;BMP280;12205;50.600;4.608;2022-11-24T09:58:05;99414.44;;;9.60
23992;BMP280;12205;50.600;4.608;2022-11-24T10:00:38;99424.81;;;9.69
23992;BMP280;12205;50.600;4.608;2022-11-24T10:03:15;99427.91;;;9.75
23992;BMP280;12205;50.600;4.608;2022-11-24T10:05:47;99439.38;;;9.79
23992;BMP280;12205;50.600;4.608;2022-11-24T10:08:29;99451.97;;;9.78
23992;BMP280;12205;50.600;4.608;2022-11-24T10:11:01;99457.66;;;9.77
23992;BMP280;12205;50.600;4.608;2022-11-24T10:14:00;99464.59;;;9.85
23992;BMP280;12205;50.600;4.608;2022-11-24T10:16:44;99455.16;;;9.98
23992;BMP280;12205;50.600;4.608;2022-11-24T10:19:28;99445.75;;;10.12
23992;BMP280;12205;50.600;4.608;2022-11-24T10:22:20;99472.50;;;10.19
23992;BMP280;12205;50.600;4.608;2022-11-24T10:25:18;99465.31;;;10.23
23992;BMP280;12205;50.600;4.608;2022-11-24T10:27:54;99466.50;;;10.29
23992;BMP280;12205;50.600;4.608;2022-11-24T10:30:22;99476.44;;;10.36
23992;BMP280;12205;50.600;4.608;2022-11-24T10:32:55;99479.47;;;10.34
23992;BMP280;12205;50.600;4.608;2022-11-24T10:35:29;99485.69;;;10.45
23992;BMP280;12205;50.600;4.608;2022-11-24T10:38:15;99511.25;;;10.46
23992;BMP280;12205;50.600;4.608;2022-11-24T10:40:51;99510.13;;;10.48
23992;BMP280;12205;50.600;4.608;2022-11-24T10:43:20;99499.44;;;10.48
23992;BMP280;12205;50.600;4.608;2022-11-24T10:45:47;99515.09;;;10.45
23992;BMP280;12205;50.600;4.608;2022-11-24T10:48:21;99498.69;;;10.51
23992;BMP280;12205;50.600;4.608;2022-11-24T10:50:52;99523.22;;;10.63
23992;BMP280;12205;50.600;4.608;2022-11-24T10:53:28;99533.97;;;10.71
23992;BMP280;12205;50.600;4.608;2022-11-24T10:55:58;99521.00;;;10.76
23992;BMP280;12205;50.600;4.608;2022-11-24T10:58:27;99534.75;;;10.75
23992;BMP280;12205;50.600;4.608;2022-11-24T11:00:58;99556.13;;;10.75
23992;BMP280;12205;50.600;4.608;2022-11-24T11:03:29;99545.84;;;10.73
23992;BMP280;12205;50.600;4.608;2022-11-24T11:06:00;99541.31;;;10.85
23992;BMP280;12205;50.600;4.608;2022-11-24T11:08:31;99569.94;;;10.80
23992;BMP280;12205;50.600;4.608;2022-11-24T11:11:19;99560.03;;;10.92
23992;BMP280;12205;50.600;4.608;2022-11-24T11:13:55;99550.16;;;10.96
23992;BMP280;12205;50.600;4.608;2022-11-24T11:16:29;99581.44;;;10.92
23992;BMP280;12205;50.600;4.608;2022-11-24T11:18:59;99580.69;;;10.95
23992;BMP280;12205;50.600;4.608;2022-11-24T11:21:33;99569.66;;;11.00
23992;BMP280;12205;50.600;4.608;2022-11-24T11:24:12;99573.13;;;11.04
23992;BMP280;12205;50.600;4.608;2022-11-24T11:26:42;99586.16;;;11.09
23992;BMP280;12205;50.600;4.608;2022-11-24T11:29:16;99595.34;;;11.12
23992;BMP280;12205;50.600;4.608;2022-11-24T11:32:00;99598.41;;;11.17
23992;BMP280;12205;50.600;4.608;2022-11-24T11:34:34;99590.41;;;11.17
23992;BMP280;12205;50.600;4.608;2022-11-24T11:37:03;99599.25;;;11.29
23992;BMP280;12205;50.600;4.608;2022-11-24T11:39:35;99595.44;;;11.30
23992;BMP280;12205;50.600;4.608;2022-11-24T11:42:16;99598.09;;;11.33
23992;BMP280;12205;50.600;4.608;2022-11-24T11:44:50;99606.56;;;11.39
23992;BMP280;12205;50.600;4.608;2022-11-24T11:47:26;99600.47;;;11.42
23992;BMP280;12205;50.600;4.608;2022-11-24T11:49:54;99601.97;;;11.43
23992;BMP280;12205;50.600;4.608;2022-11-24T11:52:53;99599.34;;;11.47
23992;BMP280;12205;50.600;4.608;2022-11-24T11:55:42;99598.59;;;11.57
23992;BMP280;12205;50.600;4.608;2022-11-24T12:01:40;99629.66;;;11.76
23992;BMP280;12205;50.600;4.608;2022-11-24T12:04:20;99633.84;;;11.70
23992;BMP280;12205;50.600;4.608;2022-11-24T12:07:10;99642.25;;;11.72
23992;BMP280;12205;50.600;4.608;2022-11-24T12:09:57;99635.41;;;11.78
23992;BMP280;12205;50.600;4.608;2022-11-24T12:12:50;99649.50;;;11.68
23992;BMP280;12205;50.600;4.608;2022-11-24T12:15:30;99646.88;;;11.75
23992;BMP280;12205;50.600;4.608;2022-11-24T12:18:13;99627.78;;;11.77
23992;BMP280;12205;50.600;4.608;2022-11-24T12:21:02;99630.03;;;11.78
23992;BMP280;12205;50.600;4.608;2022-11-24T12:23:48;99635.81;;;11.84
23992;BMP280;12205;50.600;4.608;2022-11-24T12:26:31;99642.34;;;11.93
23992;BMP280;12205;50.600;4.608;2022-11-24T12:29:24;99650.84;;;12.28
23992;BMP280;12205;50.600;4.608;2022-11-24T12:32:05;99667.72;;;13.07
23992;BMP280;12205;50.600;4.608;2022-11-24T12:34:46;99702.41;;;13.79
23992;BMP280;12205;50.600;4.608;2022-11-24T12:37:39;99728.63;;;14.35
23992;BMP280;12205;50.600;4.608;2022-11-24T12:40:16;99733.06;;;15.08
23992;BMP280;12205;50.600;4.608;2022-11-24T12:42:59;99747.22;;;15.85
23992;BMP280;12205;50.600;4.608;2022-11-24T12:45:41;99740.78;;;16.84
23992;BMP280;12205;50.600;4.608;2022-11-24T12:48:30;99751.31;;;17.62
23992;BMP280;12205;50.600;4.608;2022-11-24T12:51:02;99744.66;;;17.83
23992;BMP280;12205;50.600;4.608;2022-11-24T12:53:32;99742.84;;;17.96
23992;BMP280;12205;50.600;4.608;2022-11-24T12:56:09;99740.34;;;18.38
23992;BMP280;12205;50.600;4.608;2022-11-24T12:58:42;99742.88;;;18.29
23992;BMP280;12205;50.600;4.608;2022-11-24T13:01:29;99744.56;;;18.39
23992;BMP280;12205;50.600;4.608;2022-11-24T13:04:10;99746.22;;;18.82
23992;BMP280;12205;50.600;4.608;2022-11-24T13:06:49;99746.38;;;18.75
23992;BMP280;12205;50.600;4.608;2022-11-24T13:09:19;99750.31;;;19.03
23992;BMP280;12205;50.600;4.608;2022-11-24T13:11:47;99754.06;;;19.22
23992;BMP280;12205;50.600;4.608;2022-11-24T13:14:19;99749.78;;;18.63
23992;BMP280;12205;50.600;4.608;2022-11-24T13:16:57;99758.75;;;18.76
23992;BMP280;12205;50.600;4.608;2022-11-24T13:19:27;99760.78;;;18.56
23992;BMP280;12205;50.600;4.608;2022-11-24T13:22:13;99750.16;;;18.16
23992;BMP280;12205;50.600;4.608;2022-11-24T13:24:42;99742.34;;;17.85
23992;BMP280;12205;50.600;4.608;2022-11-24T13:27:43;99745.25;;;17.54
23992;BMP280;12205;50.600;4.608;2022-11-24T13:30:53;99739.31;;;17.43
23992;BMP280;12205;50.600;4.608;2022-11-24T13:33:36;99738.75;;;17.72
23992;BMP280;12205;50.600;4.608;2022-11-24T13:36:32;99739.25;;;17.83
23992;BMP280;12205;50.600;4.608;2022-11-24T13:39:02;99744.72;;;17.43
23992;BMP280;12205;50.600;4.608;2022-11-24T13:42:07;99748.63;;;16.51
23992;BMP280;12205;50.600;4.608;2022-11-24T13:44:58;99751.19;;;16.07
23992;BMP280;12205;50.600;4.608;2022-11-24T13:47:44;99754.50;;;15.57
23992;BMP280;12205;50.600;4.608;2022-11-24T13:51:12;99769.91;;;15.15
23992;BMP280;12205;50.600;4.608;2022-11-24T14:10:43;99736.66;;;13.47
23992;BMP280;12205;50.600;4.608;2022-11-24T14:13:25;99736.69;;;13.25
23992;BMP280;12205;50.600;4.608;2022-11-24T14:16:03;99725.59;;;13.23
23992;BMP280;12205;50.600;4.608;2022-11-24T14:18:32;99721.38;;;13.15
23992;BMP280;12205;50.600;4.608;2022-11-24T14:21:19;99713.69;;;13.10
23992;BMP280;12205;50.600;4.608;2022-11-24T14:23:53;99713.72;;;13.02
23992;BMP280;12205;50.600;4.608;2022-11-24T14:26:25;99714.84;;;12.91
23992;BMP280;12205;50.600;4.608;2022-11-24T14:29:02;99710.63;;;12.75
23992;BMP280;12205;50.600;4.608;2022-11-24T14:31:30;99711.00;;;12.66
23992;BMP280;12205;50.600;4.608;2022-11-24T14:34:17;99701.41;;;12.55
23992;BMP280;12205;50.600;4.608;2022-11-24T14:36:46;99701.41;;;12.51
23992;BMP280;12205;50.600;4.608;2022-11-24T14:39:16;99697.56;;;12.30
23992;BMP280;12205;50.600;4.608;2022-11-24T14:41:52;99696.78;;;12.19
23992;BMP280;12205;50.600;4.608;2022-11-24T14:44:24;99694.78;;;12.02
23992;BMP280;12205;50.600;4.608;2022-11-24T14:47:01;99698.19;;;11.91
23992;BMP280;12205;50.600;4.608;2022-11-24T14:49:32;99692.44;;;11.89
23992;BMP280;12205;50.600;4.608;2022-11-24T14:52:02;99686.28;;;11.78
23992;BMP280;12205;50.600;4.608;2022-11-24T14:54:31;99678.22;;;11.74
23992;BMP280;12205;50.600;4.608;2022-11-24T14:57:01;99664.09;;;11.74
23992;BMP280;12205;50.600;4.608;2022-11-24T14:59:31;99646.09;;;11.71
23992;BMP280;12205;50.600;4.608;2022-11-24T15:02:01;99648.41;;;11.72
23992;BMP280;12205;50.600;4.608;2022-11-24T15:04:30;99632.34;;;11.80
23992;BMP280;12205;50.600;4.608;2022-11-24T15:07:12;99631.59;;;11.79
23992;BMP280;12205;50.600;4.608;2022-11-24T15:09:49;99645.31;;;11.77